Time;durP1;ratioP1;P1;durP2;ratioP2;P2;SDS_P1;SDS_P2;PMS_P1;PMS_P2;Temp;Humidity;BMP_temperature;BMP_pressure;BME280_temperature;BME280_humidity;BME280_pressure;Samples;Min_cycle;Max_cycle;Signal;HPM_P1;HPM_P2
2020/12/21 00:00:10;;;;;;;18.35;3.92;;;;;;;6.15;94.88;101925.66;5053166;28;20044;-82
2020/12/21 00:02:36;;;;;;;14.15;3.50;;;;;;;6.22;94.65;101931.72;5053624;28;20536;-83
2020/12/21 00:05:01;;;;;;;17.30;3.72;;;;;;;6.22;94.56;101922.13;5058109;28;20103;-82
2020/12/21 00:07:27;;;;;;;19.17;2.85;;;;;;;6.25;94.48;101922.97;5038258;28;20069;-82
2020/12/21 00:09:52;;;;;;;12.77;2.95;;;;;;;6.31;94.08;101920.28;5058835;28;20064;-82
2020/12/21 00:12:17;;;;;;;15.70;2.90;;;;;;;6.30;94.15;101923.78;5055830;28;20089;-81
2020/12/21 00:14:42;;;;;;;12.43;2.80;;;;;;;6.26;94.40;101924.69;5055080;28;20037;-82
2020/12/21 00:17:08;;;;;;;14.68;3.33;;;;;;;6.31;94.09;101915.88;5057008;28;20058;-82
2020/12/21 00:19:33;;;;;;;11.88;3.25;;;;;;;6.32;93.96;101917.63;5062789;28;20035;-82
2020/12/21 00:21:59;;;;;;;14.80;3.17;;;;;;;6.31;94.02;101915.03;5059537;28;20076;-82
2020/12/21 00:24:24;;;;;;;11.40;3.33;;;;;;;6.27;94.26;101908.94;5026909;28;20035;-82
2020/12/21 00:26:51;;;;;;;15.32;3.42;;;;;;;6.21;94.48;101903.75;5053582;28;20025;-82
2020/12/21 00:29:17;;;;;;;13.68;3.45;;;;;;;6.28;94.44;101918.56;5054500;28;20024;-80
2020/12/21 00:31:43;;;;;;;10.52;2.80;;;;;;;6.34;94.33;101912.38;5056414;28;20033;-79
2020/12/21 00:34:10;;;;;;;23.80;4.30;;;;;;;6.29;94.46;101920.31;5057963;28;20108;-79
2020/12/21 00:36:37;;;;;;;20.05;4.60;;;;;;;6.29;94.68;101917.69;5054675;28;20028;-80
2020/12/21 00:39:05;;;;;;;17.48;3.70;;;;;;;6.34;94.33;101920.25;5054785;28;20058;-79
2020/12/21 00:41:30;;;;;;;20.27;3.70;;;;;;;6.31;94.70;101913.25;5048536;28;20025;-80
2020/12/21 00:43:55;;;;;;;12.70;3.70;;;;;;;6.31;94.59;101909.78;5061254;28;20025;-79
2020/12/21 00:46:24;;;;;;;17.27;4.22;;;;;;;6.31;94.51;101908.03;5054629;28;20516;-80
2020/12/21 00:48:50;;;;;;;17.13;3.83;;;;;;;6.29;94.44;101907.19;5049940;28;20029;-80
2020/12/21 00:51:16;;;;;;;21.48;7.10;;;;;;;6.22;94.66;101905.47;5055540;28;20051;-80
2020/12/21 00:53:42;;;;;;;21.58;5.93;;;;;;;6.08;95.25;101892.50;5049916;28;20396;-80
2020/12/21 00:56:08;;;;;;;24.05;6.43;;;;;;;6.11;95.28;101895.06;5052530;28;20135;-79
2020/12/21 00:58:35;;;;;;;22.27;7.18;;;;;;;6.20;94.91;101907.25;5059554;28;20123;-79
2020/12/21 01:01:04;;;;;;;16.77;7.47;;;;;;;6.16;94.86;101887.16;5046456;28;20558;-80
2020/12/21 01:03:29;;;;;;;14.45;5.35;;;;;;;6.26;94.64;101890.56;5051375;28;20021;-79
2020/12/21 01:05:54;;;;;;;21.90;6.03;;;;;;;6.27;94.61;101898.41;5058418;28;20024;-79
2020/12/21 01:08:20;;;;;;;10.25;3.78;;;;;;;6.31;94.61;101899.28;5059184;28;20108;-80
2020/12/21 01:10:45;;;;;;;20.23;4.43;;;;;;;6.36;94.49;101897.47;5056700;28;20032;-79
2020/12/21 01:13:10;;;;;;;15.93;5.00;;;;;;;6.22;94.89;101908.09;5050377;28;20489;-79
2020/12/21 01:15:36;;;;;;;14.68;4.75;;;;;;;6.36;94.54;101903.59;5054438;28;20037;-79
2020/12/21 01:18:01;;;;;;;16.77;5.35;;;;;;;6.33;94.49;101893.13;5056814;28;20078;-79
2020/12/21 01:20:26;;;;;;;19.27;5.55;;;;;;;6.29;94.55;101894.03;5057035;28;20447;-80
2020/12/21 01:22:52;;;;;;;15.95;5.47;;;;;;;6.32;94.78;101899.25;5055219;28;20505;-79
2020/12/21 01:25:17;;;;;;;15.75;5.00;;;;;;;6.27;94.95;101887.06;5058184;28;20024;-79
2020/12/21 01:27:42;;;;;;;19.05;5.40;;;;;;;6.24;95.04;101893.22;5050758;28;20112;-79
2020/12/21 01:30:07;;;;;;;17.58;5.45;;;;;;;6.15;95.53;101890.69;5054628;28;20041;-79
2020/12/21 01:32:33;;;;;;;15.38;5.32;;;;;;;6.15;95.46;101894.16;5049015;28;20432;-80
2020/12/21 01:34:58;;;;;;;11.63;4.38;;;;;;;6.17;95.82;101897.63;5060312;28;20040;-80
2020/12/21 01:37:23;;;;;;;16.15;5.57;;;;;;;6.08;96.21;101896.88;5057799;28;20043;-80
2020/12/21 01:39:49;;;;;;;15.82;5.60;;;;;;;6.14;95.94;101907.31;5055526;28;20035;-80
2020/12/21 01:42:15;;;;;;;22.75;4.75;;;;;;;6.09;95.98;101896.84;5068109;28;20047;-80
2020/12/21 01:44:42;;;;;;;16.88;4.65;;;;;;;6.21;95.82;101914.25;5052104;28;20024;-79
2020/12/21 01:47:08;;;;;;;12.30;4.55;;;;;;;6.11;96.21;101918.69;5053760;28;20509;-79
2020/12/21 01:49:33;;;;;;;17.90;4.55;;;;;;;6.14;96.11;101913.44;5048212;28;20106;-79
2020/12/21 01:51:59;;;;;;;13.93;3.70;;;;;;;6.14;96.33;101917.81;5052081;28;20024;-80
2020/12/21 01:54:24;;;;;;;21.70;5.05;;;;;;;6.19;96.11;101919.50;5054753;28;20472;-78
2020/12/21 01:56:52;;;;;;;14.55;4.15;;;;;;;6.17;96.47;101912.53;5052733;28;20029;-79
2020/12/21 01:59:18;;;;;;;14.63;4.32;;;;;;;6.18;96.14;101914.28;5056955;28;20665;-78
2020/12/21 02:01:45;;;;;;;20.48;3.88;;;;;;;6.10;96.45;101911.72;5055193;28;20036;-81
2020/12/21 02:04:10;;;;;;;12.18;4.88;;;;;;;6.10;96.33;101910.84;5060805;28;20111;-79
2020/12/21 02:06:36;;;;;;;21.13;4.65;;;;;;;6.14;96.23;101910.81;5057383;28;20103;-81
2020/12/21 02:09:02;;;;;;;18.50;5.32;;;;;;;6.02;96.56;101910.91;5058440;28;20502;-80
2020/12/21 02:11:27;;;;;;;19.10;4.38;;;;;;;5.93;97.09;101906.63;5058671;28;20028;-81
2020/12/21 02:13:53;;;;;;;14.75;4.38;;;;;;;5.96;96.90;101908.34;5058549;28;20032;-79
2020/12/21 02:16:18;;;;;;;14.02;4.38;;;;;;;5.88;97.23;101916.25;5057652;28;20028;-79
2020/12/21 02:18:43;;;;;;;13.02;4.47;;;;;;;5.87;97.11;101917.16;5059210;28;20046;-81
2020/12/21 02:21:09;;;;;;;9.70;4.22;;;;;;;5.85;97.03;101910.16;5055970;28;20037;-80
2020/12/21 02:23:34;;;;;;;18.95;4.57;;;;;;;5.69;97.76;101910.28;5055080;28;20465;-80
2020/12/21 02:25:59;;;;;;;22.58;4.38;;;;;;;5.62;98.03;101910.31;5058211;28;20114;-80
2020/12/21 02:28:25;;;;;;;20.08;4.63;;;;;;;5.55;98.40;101906.00;5056677;28;20059;-80
2020/12/21 02:30:50;;;;;;;14.77;4.90;;;;;;;5.56;98.25;101900.72;5055992;28;20036;-80
2020/12/21 02:33:15;;;;;;;14.77;4.38;;;;;;;5.44;98.92;101906.94;5056671;28;20496;-81
2020/12/21 02:35:40;;;;;;;15.55;5.03;;;;;;;5.56;98.56;101897.25;5037816;28;20085;-80
2020/12/21 02:38:07;;;;;;;21.30;4.18;;;;;;;5.55;98.57;101895.50;5057762;28;20028;-81
2020/12/21 02:40:35;;;;;;;15.27;5.13;;;;;;;5.43;98.92;101893.84;5058353;28;20472;-79
2020/12/21 02:43:00;;;;;;;15.13;4.10;;;;;;;5.45;98.71;101899.94;5057552;28;20029;-81
2020/12/21 02:45:25;;;;;;;14.75;5.10;;;;;;;5.46;98.85;101889.44;5059358;28;20499;-79
2020/12/21 02:47:50;;;;;;;18.38;4.47;;;;;;;5.38;99.07;101899.13;5054252;28;20044;-79
2020/12/21 02:50:16;;;;;;;14.27;3.88;;;;;;;5.31;99.44;101889.53;5060816;28;20033;-80
2020/12/21 02:52:41;;;;;;;21.00;3.97;;;;;;;5.25;99.63;101880.84;5056221;28;20456;-79
2020/12/21 02:55:06;;;;;;;12.95;3.38;;;;;;;5.18;99.97;101874.78;5056618;28;20085;-80
2020/12/21 02:57:32;;;;;;;19.60;4.30;;;;;;;5.19;100.00;101874.75;5063045;28;20025;-79
2020/12/21 02:59:57;;;;;;;15.38;4.43;;;;;;;5.14;100.00;101873.03;5050657;28;20025;-79
2020/12/21 03:05:44;;;;;;;21.90;4.57;;;;;;;5.04;100.00;101868.72;5052450;28;20136;-79
2020/12/21 03:08:11;;;;;;;15.85;4.05;;;;;;;5.08;100.00;101876.56;5055932;28;20044;-78
2020/12/21 03:10:37;;;;;;;13.48;3.83;;;;;;;5.03;100.00;101878.34;5055158;28;20041;-79
2020/12/21 03:13:03;;;;;;;13.90;4.63;;;;;;;5.02;100.00;101878.34;5058854;28;20038;-79
2020/12/21 03:15:29;;;;;;;15.82;4.20;;;;;;;5.03;100.00;101875.72;5057185;28;20037;-78
2020/12/21 03:17:54;;;;;;;15.73;4.03;;;;;;;5.03;100.00;101877.47;5056736;28;20028;-80
2020/12/21 03:20:19;;;;;;;15.57;4.07;;;;;;;4.97;100.00;101877.47;5054264;28;20090;-79
2020/12/21 03:22:47;;;;;;;17.65;5.55;;;;;;;4.91;100.00;101876.63;5061462;28;20044;-79
2020/12/21 03:25:12;;;;;;;22.17;5.32;;;;;;;5.01;100.00;101872.22;5056860;28;20029;-79
2020/12/21 03:27:38;;;;;;;18.83;5.05;;;;;;;4.98;100.00;101877.50;5051144;28;20087;-79
2020/12/21 03:30:04;;;;;;;8.73;3.28;;;;;;;4.99;100.00;101879.22;5051283;28;20145;-79
2020/12/21 03:32:29;;;;;;;14.77;3.70;;;;;;;4.92;100.00;101886.25;5052925;28;20112;-78
2020/12/21 03:34:55;;;;;;;13.98;4.03;;;;;;;4.91;100.00;101878.38;5055321;28;20470;-80
2020/12/21 03:37:20;;;;;;;18.73;4.75;;;;;;;4.88;100.00;101878.41;5057600;28;20025;-80
2020/12/21 03:39:46;;;;;;;15.88;4.05;;;;;;;4.93;100.00;101882.75;5056767;28;20494;-81
2020/12/21 03:42:11;;;;;;;14.13;3.63;;;;;;;4.89;100.00;101878.41;5054027;28;20117;-78
2020/12/21 03:44:36;;;;;;;16.30;4.15;;;;;;;4.93;100.00;101884.50;5056516;28;20013;-78
2020/12/21 03:47:02;;;;;;;14.30;4.95;;;;;;;4.98;100.00;101874.00;5052979;28;20036;-80
2020/12/21 03:49:27;;;;;;;16.13;4.63;;;;;;;5.00;100.00;101872.25;5059110;28;20028;-78
2020/12/21 03:51:52;;;;;;;16.27;3.90;;;;;;;4.96;100.00;101860.03;5051785;28;20064;-79
2020/12/21 03:54:18;;;;;;;18.17;3.42;;;;;;;4.98;100.00;101864.41;5058802;28;20044;-78
2020/12/21 03:56:43;;;;;;;13.75;3.60;;;;;;;5.05;100.00;101857.38;5055385;28;20017;-78
2020/12/21 03:59:10;;;;;;;10.32;3.58;;;;;;;5.07;100.00;101847.72;5052996;28;20036;-80
2020/12/21 04:01:37;;;;;;;13.48;3.47;;;;;;;5.06;100.00;101843.38;5048350;28;20024;-80
2020/12/21 04:04:04;;;;;;;10.55;3.30;;;;;;;5.02;100.00;101839.94;5053721;28;20028;-80
2020/12/21 04:06:29;;;;;;;14.57;3.60;;;;;;;5.08;100.00;101842.50;5056670;28;20081;-81
2020/12/21 04:08:54;;;;;;;17.05;5.03;;;;;;;5.02;100.00;101836.41;5056488;28;20049;-77
2020/12/21 04:11:20;;;;;;;17.23;4.60;;;;;;;5.09;100.00;101835.50;5051144;28;20653;-80
2020/12/21 04:13:45;;;;;;;15.32;3.75;;;;;;;5.05;100.00;101824.16;5058018;28;20029;-80
2020/12/21 04:16:10;;;;;;;13.32;4.05;;;;;;;5.09;100.00;101830.28;5051859;28;20083;-79
2020/12/21 04:18:36;;;;;;;15.32;4.35;;;;;;;5.12;100.00;101827.63;5051222;28;20020;-79
2020/12/21 04:21:01;;;;;;;19.85;4.78;;;;;;;5.12;100.00;101822.38;5050355;28;20036;-79
2020/12/21 04:23:26;;;;;;;20.75;4.88;;;;;;;5.03;100.00;101814.59;5059287;28;20058;-78
2020/12/21 04:25:51;;;;;;;11.85;4.32;;;;;;;5.03;100.00;101817.22;5051348;28;20451;-78
2020/12/21 04:28:17;;;;;;;18.55;4.05;;;;;;;5.02;100.00;101811.09;5054153;28;20025;-82
2020/12/21 04:30:42;;;;;;;14.60;4.50;;;;;;;4.99;100.00;101821.59;5059523;28;20048;-81
2020/12/21 04:33:07;;;;;;;12.75;4.10;;;;;;;5.01;100.00;101814.59;5054762;28;20040;-82
2020/12/21 04:35:33;;;;;;;14.90;3.65;;;;;;;4.99;100.00;101810.25;5057044;28;20421;-82
2020/12/21 04:37:58;;;;;;;15.07;4.15;;;;;;;5.00;100.00;101804.13;5048160;28;20068;-81
2020/12/21 04:40:23;;;;;;;17.98;4.72;;;;;;;4.98;100.00;101801.53;5055870;28;20158;-82
2020/12/21 04:42:51;;;;;;;15.38;4.40;;;;;;;5.02;100.00;101808.50;5054568;28;20061;-81
2020/12/21 04:45:17;;;;;;;8.88;3.90;;;;;;;4.98;100.00;101793.66;5056762;28;20020;-82
2020/12/21 04:47:43;;;;;;;24.13;5.95;;;;;;;5.00;100.00;101796.25;5051820;28;20032;-82
2020/12/21 04:50:12;;;;;;;15.85;4.60;;;;;;;5.00;100.00;101797.13;5054744;28;20515;-81
2020/12/21 04:52:50;;;;;;;20.23;4.28;;;;;;;5.02;100.00;101798.00;5051030;28;20016;-81
2020/12/21 04:55:21;;;;;;;16.55;4.85;;;;;;;5.06;100.00;101797.09;5058005;28;20024;-81
2020/12/21 04:58:00;;;;;;;16.30;4.10;;;;;;;5.01;100.00;101798.88;5052370;28;20032;-81
2020/12/21 05:00:28;;;;;;;20.63;5.25;;;;;;;5.04;100.00;101798.84;5060653;28;20071;-80
2020/12/21 05:02:54;;;;;;;15.38;4.80;;;;;;;5.02;100.00;101797.09;5048286;28;20146;-82
2020/12/21 05:05:31;;;;;;;17.65;4.60;;;;;;;4.97;100.00;101797.16;5047531;28;20029;-82
2020/12/21 05:07:56;;;;;;;16.52;4.93;;;;;;;5.07;100.00;101792.72;5054772;28;20036;-81
2020/12/21 05:10:21;;;;;;;19.42;4.43;;;;;;;5.04;100.00;101793.63;5036203;28;20049;-81
2020/12/21 05:12:57;;;;;;;17.70;5.07;;;;;;;5.10;100.00;101784.84;5055286;28;20033;-81
2020/12/21 05:15:23;;;;;;;18.08;5.57;;;;;;;5.06;100.00;101791.84;5059428;28;20086;-81
2020/12/21 05:17:48;;;;;;;25.17;6.70;;;;;;;5.04;100.00;101772.66;5056376;28;20036;-81
2020/12/21 05:20:13;;;;;;;21.38;5.32;;;;;;;5.08;100.00;101779.63;5058258;28;20035;-82
2020/12/21 05:22:39;;;;;;;30.60;6.00;;;;;;;5.17;100.00;101776.03;5035919;28;20427;-81
2020/12/21 05:25:07;;;;;;;22.55;5.65;;;;;;;5.15;100.00;101781.31;5069671;28;20020;-81
2020/12/21 05:27:33;;;;;;;21.52;5.65;;;;;;;5.20;100.00;101762.94;5050361;28;20484;-81
2020/12/21 05:29:58;;;;;;;21.75;6.25;;;;;;;5.16;100.00;101762.06;5056056;28;20032;-81
2020/12/21 05:32:24;;;;;;;19.50;6.00;;;;;;;5.18;100.00;101770.81;5035569;28;20033;-82
2020/12/21 05:34:50;;;;;;;20.42;5.95;;;;;;;5.25;100.00;101773.38;5056005;28;20370;-82
2020/12/21 05:37:18;;;;;;;23.42;6.60;;;;;;;5.20;100.00;101769.03;5056451;28;20059;-81
2020/12/21 05:39:49;;;;;;;19.48;5.22;;;;;;;5.27;100.00;101769.88;5064177;28;20027;-81
2020/12/21 05:42:14;;;;;;;22.13;5.95;;;;;;;5.33;100.00;101769.81;5039556;28;20028;-81
2020/12/21 05:44:50;;;;;;;20.20;4.95;;;;;;;5.32;100.00;101757.59;5057971;28;20025;-81
2020/12/21 05:47:16;;;;;;;18.58;4.85;;;;;;;5.36;100.00;101756.66;5056068;28;20047;-81
2020/12/21 05:49:51;;;;;;;14.00;3.95;;;;;;;5.38;100.00;101757.53;5063719;28;20024;-81
2020/12/21 05:52:27;;;;;;;21.02;5.28;;;;;;;5.41;100.00;101759.25;5045525;28;20028;-81
2020/12/21 05:54:53;;;;;;;18.42;5.03;;;;;;;5.41;100.00;101762.75;5057493;28;20021;-81
2020/12/21 05:57:19;;;;;;;16.42;4.30;;;;;;;5.42;100.00;101774.09;5061647;28;20598;-81
2020/12/21 05:59:47;;;;;;;13.10;4.05;;;;;;;5.41;100.00;101775.84;5063138;28;20028;-80
2020/12/21 06:02:13;;;;;;;9.60;4.05;;;;;;;5.42;100.00;101777.63;5056035;28;20032;-81
2020/12/21 06:04:39;;;;;;;19.67;4.45;;;;;;;5.49;100.00;101777.56;5066748;28;20465;-81
2020/12/21 06:07:10;;;;;;;20.75;4.93;;;;;;;5.48;100.00;101773.22;5054470;28;20036;-82
2020/12/21 06:09:35;;;;;;;17.17;4.10;;;;;;;5.48;100.00;101775.81;5057375;28;20063;-82
2020/12/21 06:12:02;;;;;;;15.48;4.15;;;;;;;5.53;100.00;101771.41;5047342;28;21341;-82
2020/12/21 06:14:28;;;;;;;17.45;5.10;;;;;;;5.55;100.00;101760.00;5062601;28;20049;-82
2020/12/21 06:16:54;;;;;;;13.45;4.10;;;;;;;5.54;100.00;101768.78;5057687;28;20478;-82
2020/12/21 06:19:24;;;;;;;18.17;4.03;;;;;;;5.53;100.00;101753.06;5057276;28;20071;-82
2020/12/21 06:21:53;;;;;;;11.60;3.50;;;;;;;5.58;100.00;101756.50;5079006;28;20492;-82
2020/12/21 06:24:24;;;;;;;8.57;3.22;;;;;;;5.56;100.00;101751.25;5059102;28;20028;-81
2020/12/21 06:26:50;;;;;;;10.88;3.03;;;;;;;5.58;100.00;101761.75;5058905;28;20062;-82
2020/12/21 06:29:19;;;;;;;8.10;3.65;;;;;;;5.56;100.00;101763.50;5062027;28;20060;-82
2020/12/21 06:31:46;;;;;;;24.30;5.00;;;;;;;5.60;100.00;101763.47;5058853;28;20029;-82
2020/12/21 06:34:17;;;;;;;16.10;4.13;;;;;;;5.58;100.00;101756.50;5053474;28;20036;-82
2020/12/21 06:36:45;;;;;;;13.05;3.42;;;;;;;5.58;100.00;101765.25;5049682;28;20401;-83
2020/12/21 06:39:21;;;;;;;19.05;4.45;;;;;;;5.63;100.00;101758.19;5046160;28;20037;-82
2020/12/21 06:41:47;;;;;;;18.23;5.20;;;;;;;5.66;100.00;101760.78;5054360;28;20051;-81
2020/12/21 06:44:12;;;;;;;14.57;3.92;;;;;;;5.68;100.00;101772.13;5059994;28;20024;-82
2020/12/21 06:46:37;;;;;;;11.98;3.38;;;;;;;5.68;100.00;101764.28;5048655;28;20043;-82
2020/12/21 06:49:07;;;;;;;12.35;3.53;;;;;;;5.65;100.00;101761.66;5050278;28;20055;-81
2020/12/21 06:51:34;;;;;;;13.20;4.40;;;;;;;5.70;100.00;101759.88;5039457;28;20035;-82
2020/12/21 06:54:02;;;;;;;11.02;4.18;;;;;;;5.70;100.00;101764.25;5032148;28;20043;-82
2020/12/21 06:56:27;;;;;;;10.73;3.65;;;;;;;5.72;100.00;101757.22;5046548;28;20041;-83
2020/12/21 06:58:53;;;;;;;18.08;3.63;;;;;;;5.78;100.00;101743.19;5049741;28;20386;-81
2020/12/21 07:01:20;;;;;;;9.13;3.15;;;;;;;5.82;100.00;101750.13;5046723;28;20028;-82
2020/12/21 07:03:46;;;;;;;18.33;3.58;;;;;;;5.80;100.00;101746.66;5052215;28;20043;-82
2020/12/21 07:06:12;;;;;;;15.73;3.75;;;;;;;5.81;100.00;101740.53;5051417;28;20025;-82
2020/12/21 07:08:38;;;;;;;12.35;3.22;;;;;;;5.83;100.00;101731.78;5055553;28;20083;-82
2020/12/21 07:11:03;;;;;;;13.88;3.50;;;;;;;5.85;100.00;101731.75;5050555;28;20052;-81
2020/12/21 07:13:31;;;;;;;15.55;3.63;;;;;;;5.86;100.00;101726.47;5055457;28;20079;-81
2020/12/21 07:16:00;;;;;;;11.23;4.32;;;;;;;5.87;100.00;101717.75;5056551;28;20025;-82
2020/12/21 07:18:25;;;;;;;13.52;4.20;;;;;;;5.80;100.00;101718.69;5049676;28;20032;-82
2020/12/21 07:20:51;;;;;;;14.88;4.28;;;;;;;5.80;100.00;101729.16;5053398;28;20027;-82
2020/12/21 07:23:16;;;;;;;9.23;3.55;;;;;;;5.85;100.00;101735.22;5061590;28;20028;-82
2020/12/21 07:25:53;;;;;;;14.85;3.97;;;;;;;5.91;100.00;101737.81;5061064;28;20048;-82
2020/12/21 07:28:23;;;;;;;10.18;3.60;;;;;;;5.94;100.00;101739.56;5053438;28;20231;-80
2020/12/21 07:30:48;;;;;;;13.27;4.45;;;;;;;5.95;100.00;101739.53;5058341;28;20698;-79
2020/12/21 07:33:14;;;;;;;11.88;4.47;;;;;;;5.94;100.00;101736.94;5053245;28;20060;-80
2020/12/21 07:35:39;;;;;;;16.63;6.75;;;;;;;5.99;100.00;101736.88;5054457;28;20028;-79
2020/12/21 07:38:09;;;;;;;12.15;3.58;;;;;;;5.95;100.00;101725.53;5062153;28;20044;-79
2020/12/21 07:40:35;;;;;;;16.80;4.35;;;;;;;5.97;100.00;101724.66;5056301;28;20055;-78
2020/12/21 07:43:02;;;;;;;15.18;4.40;;;;;;;6.06;100.00;101720.16;5054055;28;20112;-79
2020/12/21 07:45:29;;;;;;;13.30;4.35;;;;;;;6.05;100.00;101719.31;5052767;28;20021;-79
2020/12/21 07:47:55;;;;;;;9.70;4.40;;;;;;;6.04;100.00;101708.84;5055854;28;20028;-79
2020/12/21 07:50:21;;;;;;;17.58;5.20;;;;;;;6.04;100.00;101709.69;5043741;28;20036;-79
2020/12/21 07:52:47;;;;;;;19.92;4.80;;;;;;;6.00;100.00;101704.50;5047935;28;20094;-80
2020/12/21 07:55:12;;;;;;;15.52;4.82;;;;;;;6.00;100.00;101704.50;5032283;28;20025;-80
2020/12/21 07:57:37;;;;;;;14.65;3.97;;;;;;;6.06;100.00;101693.91;5052236;28;20031;-79
2020/12/21 08:00:04;;;;;;;21.55;5.57;;;;;;;6.02;100.00;101695.72;5056954;28;20086;-79
2020/12/21 08:02:29;;;;;;;17.50;4.90;;;;;;;6.04;100.00;101693.94;5035118;28;20128;-81
2020/12/21 08:04:54;;;;;;;16.70;5.30;;;;;;;6.07;100.00;101699.13;5047838;28;20176;-79
2020/12/21 08:07:27;;;;;;;14.63;4.43;;;;;;;6.11;100.00;101698.22;5050790;28;20035;-79
2020/12/21 08:09:52;;;;;;;12.80;5.07;;;;;;;6.14;100.00;101698.19;5068266;28;20099;-79
2020/12/21 08:12:17;;;;;;;19.20;6.18;;;;;;;6.15;100.00;101699.06;5034642;28;20029;-79
2020/12/21 08:14:44;;;;;;;14.68;5.35;;;;;;;6.16;100.00;101695.53;5055067;28;20060;-79
2020/12/21 08:17:12;;;;;;;15.50;5.30;;;;;;;6.11;100.00;101692.13;5054904;28;20486;-79
2020/12/21 08:19:54;;;;;;;17.75;5.88;;;;;;;6.13;100.00;101691.22;5050323;28;20410;-78
2020/12/21 08:22:20;;;;;;;16.60;5.90;;;;;;;6.10;100.00;101690.38;5056948;28;20032;-78
2020/12/21 08:24:57;;;;;;;17.15;6.20;;;;;;;6.14;100.00;101690.31;5055005;28;20029;-78
2020/12/21 08:27:23;;;;;;;15.27;6.80;;;;;;;6.13;100.00;101675.47;5046629;28;20082;-78
2020/12/21 08:29:48;;;;;;;14.38;6.10;;;;;;;6.12;100.00;101663.22;5055497;28;20033;-78
2020/12/21 08:32:13;;;;;;;11.38;6.43;;;;;;;6.15;100.00;101663.19;5051847;28;20547;-79
2020/12/21 08:34:38;;;;;;;18.33;6.53;;;;;;;6.21;100.00;101656.97;5052553;28;20036;-78
2020/12/21 08:37:04;;;;;;;14.35;5.50;;;;;;;6.19;100.00;101649.13;5053349;28;20032;-78
2020/12/21 08:39:29;;;;;;;20.40;8.85;;;;;;;6.21;100.00;101649.97;5052760;28;20020;-79
2020/12/21 08:41:59;;;;;;;16.60;6.25;;;;;;;6.26;100.00;101654.28;5056543;28;20025;-78
2020/12/21 08:44:27;;;;;;;18.90;6.57;;;;;;;6.26;100.00;101652.53;5057881;28;20017;-78
2020/12/21 08:46:54;;;;;;;12.23;5.60;;;;;;;6.29;100.00;101647.25;5052524;28;20107;-78
2020/12/21 08:49:20;;;;;;;16.30;6.22;;;;;;;6.33;100.00;101641.06;5032021;28;20033;-79
2020/12/21 08:51:46;;;;;;;13.45;5.72;;;;;;;6.34;100.00;101640.19;5051237;28;20116;-78
2020/12/21 08:54:12;;;;;;;17.83;6.57;;;;;;;6.36;100.00;101643.63;5050187;28;20029;-80
2020/12/21 08:56:37;;;;;;;14.27;5.47;;;;;;;6.37;100.00;101640.13;5037205;28;20024;-80
2020/12/21 08:59:03;;;;;;;19.25;6.40;;;;;;;6.42;100.00;101633.03;5050680;28;20044;-79
2020/12/21 09:01:28;;;;;;;15.55;6.05;;;;;;;6.43;100.00;101632.19;5046150;28;20025;-77
2020/12/21 09:03:53;;;;;;;17.15;6.72;;;;;;;6.40;100.00;101634.84;5050889;28;20040;-77
2020/12/21 09:06:21;;;;;;;24.23;6.95;;;;;;;6.42;100.00;101629.56;5060314;28;20500;-77
2020/12/21 09:08:47;;;;;;;14.73;7.10;;;;;;;6.44;100.00;101628.66;5055336;28;20045;-77
2020/12/21 09:11:18;;;;;;;19.02;6.30;;;;;;;6.45;100.00;101619.00;5056729;28;20021;-78
2020/12/21 09:13:44;;;;;;;20.90;7.25;;;;;;;6.47;100.00;101614.59;5074366;28;20029;-77
2020/12/21 09:16:10;;;;;;;17.45;6.95;;;;;;;6.51;100.00;101613.66;5052756;28;20041;-78
2020/12/21 09:18:35;;;;;;;15.93;6.55;;;;;;;6.49;100.00;101608.44;5060768;28;20041;-77
2020/12/21 09:21:01;;;;;;;15.18;6.07;;;;;;;6.49;100.00;101604.94;5055397;28;20507;-77
2020/12/21 09:23:26;;;;;;;20.90;6.60;;;;;;;6.52;100.00;101602.25;5060256;28;20037;-77
2020/12/21 09:25:52;;;;;;;17.40;6.50;;;;;;;6.53;100.00;101596.13;5059044;28;20551;-77
2020/12/21 09:28:17;;;;;;;17.35;7.03;;;;;;;6.51;100.00;101594.41;5048828;28;20108;-77
2020/12/21 09:30:42;;;;;;;16.52;5.75;;;;;;;6.59;100.00;101601.28;5053926;28;20025;-77
2020/12/21 09:33:07;;;;;;;16.67;6.60;;;;;;;6.61;100.00;101599.50;5060471;28;20021;-77
2020/12/21 09:35:33;;;;;;;15.68;7.25;;;;;;;6.63;100.00;101600.34;5064175;28;20052;-78
2020/12/21 09:38:00;;;;;;;16.10;6.35;;;;;;;6.64;100.00;101601.22;5059607;28;20060;-78
2020/12/21 09:40:25;;;;;;;24.40;6.68;;;;;;;6.70;100.00;101593.22;5057750;28;20111;-77
2020/12/21 09:42:50;;;;;;;18.25;6.13;;;;;;;6.70;100.00;101595.84;5053951;28;20179;-77
2020/12/21 09:45:16;;;;;;;12.85;5.70;;;;;;;6.77;100.00;101591.34;5054438;28;20017;-77
2020/12/21 09:47:41;;;;;;;15.32;6.25;;;;;;;6.81;100.00;101575.53;5056433;28;20035;-78
2020/12/21 09:50:06;;;;;;;17.85;6.25;;;;;;;6.81;100.00;101569.41;5056222;28;20090;-76
2020/12/21 09:52:32;;;;;;;11.27;5.20;;;;;;;6.85;100.00;101563.22;5041571;28;20025;-76
2020/12/21 09:54:57;;;;;;;15.82;6.07;;;;;;;6.87;100.00;101558.78;5053958;28;20541;-78
2020/12/21 09:57:22;;;;;;;12.30;5.40;;;;;;;6.89;100.00;101550.00;5055865;28;20032;-76
2020/12/21 09:59:48;;;;;;;16.48;5.90;;;;;;;6.89;100.00;101552.63;5052605;28;20025;-77
2020/12/21 10:02:13;;;;;;;16.17;5.25;;;;;;;6.93;100.00;101543.78;5060353;28;20037;-77
2020/12/21 10:04:38;;;;;;;16.20;6.60;;;;;;;6.95;100.00;101539.38;5050844;28;20032;-77
2020/12/21 10:07:03;;;;;;;10.88;4.60;;;;;;;6.97;100.00;101536.69;5054771;28;20025;-77
2020/12/21 10:09:29;;;;;;;12.90;4.60;;;;;;;6.96;100.00;101542.84;5051794;28;20505;-77
2020/12/21 10:11:54;;;;;;;11.15;4.85;;;;;;;6.97;100.00;101527.03;5053449;28;20078;-77
2020/12/21 10:14:19;;;;;;;8.98;4.40;;;;;;;7.03;100.00;101522.56;5057760;28;20084;-77
2020/12/21 10:16:44;;;;;;;14.60;4.78;;;;;;;7.00;100.00;101516.50;5054569;28;20108;-77
2020/12/21 10:19:10;;;;;;;16.38;5.25;;;;;;;7.04;100.00;101513.81;5032010;28;20048;-77
2020/12/21 10:21:35;;;;;;;10.88;4.28;;;;;;;7.03;100.00;101512.94;5054145;28;20064;-77
2020/12/21 10:24:00;;;;;;;8.98;4.65;;;;;;;7.10;100.00;101516.31;5055069;28;20413;-77
2020/12/21 10:26:26;;;;;;;8.90;3.65;;;;;;;7.10;100.00;101506.66;5056898;28;20112;-76
2020/12/21 10:28:51;;;;;;;6.97;3.65;;;;;;;7.11;100.00;101495.25;5053494;28;20676;-76
2020/12/21 10:31:16;;;;;;;9.18;2.70;;;;;;;7.13;100.00;101482.06;5061574;28;20410;-76
2020/12/21 10:33:42;;;;;;;10.27;3.78;;;;;;;7.15;100.00;101482.91;5055091;28;20141;-76
2020/12/21 10:36:07;;;;;;;5.93;3.08;;;;;;;7.17;100.00;101457.44;5045672;28;20454;-77
2020/12/21 10:38:32;;;;;;;11.75;3.63;;;;;;;7.18;100.00;101461.84;5053000;28;20029;-78
2020/12/21 10:40:58;;;;;;;10.60;3.15;;;;;;;7.19;100.00;101455.69;5061101;28;20024;-77
2020/12/21 10:43:23;;;;;;;11.85;2.70;;;;;;;7.20;100.00;101444.25;5052793;28;20040;-77
2020/12/21 10:45:48;;;;;;;18.15;4.10;;;;;;;7.20;100.00;101437.22;5055831;28;20028;-77
2020/12/21 10:48:14;;;;;;;9.30;3.35;;;;;;;7.18;100.00;101431.16;5055084;28;20388;-77
2020/12/21 10:50:39;;;;;;;12.40;3.20;;;;;;;7.21;100.00;101423.19;5050555;28;20033;-77
2020/12/21 10:53:04;;;;;;;7.82;2.95;;;;;;;7.20;100.00;101415.34;5053552;28;21388;-77
2020/12/21 10:55:29;;;;;;;7.20;2.90;;;;;;;7.23;100.00;101426.66;5035294;28;20029;-76
2020/12/21 10:57:56;;;;;;;11.75;2.95;;;;;;;7.26;100.00;101407.31;5062652;28;20702;-78
2020/12/21 11:00:24;;;;;;;14.23;3.65;;;;;;;7.27;100.00;101412.53;5058505;28;20443;-77
2020/12/21 11:02:49;;;;;;;10.68;3.20;;;;;;;7.29;100.00;101406.41;5047840;28;20040;-77
2020/12/21 11:05:15;;;;;;;9.88;3.22;;;;;;;7.27;100.00;101402.00;5053058;28;20033;-77
2020/12/21 11:07:40;;;;;;;10.10;4.03;;;;;;;7.31;100.00;101401.97;5059133;28;20060;-77
2020/12/21 11:10:08;;;;;;;11.00;3.20;;;;;;;7.33;100.00;101408.03;5063588;28;20044;-77
2020/12/21 11:12:34;;;;;;;8.23;2.38;;;;;;;7.30;100.00;101406.34;5060604;28;20040;-78
2020/12/21 11:14:59;;;;;;;9.18;3.03;;;;;;;7.29;100.00;101396.75;5055959;28;20405;-77
2020/12/21 11:17:25;;;;;;;8.15;3.13;;;;;;;7.32;100.00;101395.78;5054545;28;20044;-77